Time;durP1;ratioP1;P1;durP2;ratioP2;P2;SDS_P1;SDS_P2;PMS_P1;PMS_P2;Temp;Humidity;BMP_temperature;BMP_pressure;BME280_temperature;BME280_humidity;BME280_pressure;Samples;Min_cycle;Max_cycle;Signal;HPM_P1;HPM_P2
2023/12/24 00:00:49;;;;;;;;;;;8.30;99.90;;;;;;5097415;28;19912;-75
2023/12/24 00:03:36;;;;;;;;;;;8.30;99.90;;;;;;5112711;28;19911;-77
2023/12/24 00:06:23;;;;;;;;;;;8.30;99.90;;;;;;5101531;28;19912;-75
2023/12/24 00:09:10;;;;;;;;;;;8.30;99.90;;;;;;5093155;28;20062;-76
2023/12/24 00:11:57;;;;;;;;;;;8.30;99.90;;;;;;5101709;28;19916;-76
2023/12/24 00:14:44;;;;;;;;;;;8.30;99.90;;;;;;5108681;28;19912;-76
2023/12/24 00:17:32;;;;;;;;;;;8.30;99.90;;;;;;5116929;28;19915;-76
2023/12/24 00:20:19;;;;;;;;;;;8.30;99.90;;;;;;5103631;28;20335;-76
2023/12/24 00:23:06;;;;;;;;;;;8.30;99.90;;;;;;5111363;28;20239;-76
2023/12/24 00:25:52;;;;;;;;;;;8.30;99.90;;;;;;5083147;28;19912;-76
2023/12/24 00:28:39;;;;;;;;;;;8.30;99.90;;;;;;5111917;28;19919;-75
2023/12/24 00:31:26;;;;;;;;;;;8.30;99.90;;;;;;5119033;28;19912;-76
2023/12/24 00:34:14;;;;;;;;;;;8.30;99.90;;;;;;5099326;28;19939;-76
2023/12/24 00:36:59;;;;;;;;;;;8.30;99.90;;;;;;5112074;28;19919;-76
2023/12/24 00:39:47;;;;;;;;;;;8.30;99.90;;;;;;5117762;28;19912;-76
2023/12/24 00:42:32;;;;;;;;;;;8.30;99.90;;;;;;5107105;28;19966;-76
2023/12/24 00:45:20;;;;;;;;;;;8.30;99.90;;;;;;5097824;28;20205;-76
2023/12/24 00:48:09;;;;;;;;;;;8.40;99.90;;;;;;5095177;28;19947;-76
2023/12/24 00:50:56;;;;;;;;;;;8.40;99.90;;;;;;5083804;28;19916;-76
2023/12/24 00:53:43;;;;;;;;;;;8.30;99.90;;;;;;5107309;28;19923;-76
2023/12/24 00:56:30;;;;;;;;;;;8.30;99.90;;;;;;5097178;28;19943;-76
2023/12/24 00:59:17;;;;;;;;;;;8.30;99.90;;;;;;5113131;28;20320;-75
2023/12/24 01:02:05;;;;;;;;;;;8.30;99.90;;;;;;5116027;28;19984;-76
2023/12/24 01:04:52;;;;;;;;;;;8.40;99.90;;;;;;5096087;28;20378;-76
2023/12/24 01:07:39;;;;;;;;;;;8.40;99.90;;;;;;5103118;28;19938;-77
2023/12/24 01:10:26;;;;;;;;;;;8.40;99.90;;;;;;5114718;28;19915;-77
2023/12/24 01:13:18;;;;;;;;;;;8.40;99.90;;;;;;5103609;28;19914;-76
2023/12/24 01:16:06;;;;;;;;;;;8.40;99.90;;;;;;5118040;28;19912;-77
2023/12/24 01:18:53;;;;;;;;;;;8.40;99.90;;;;;;5089206;28;19920;-76
2023/12/24 01:21:40;;;;;;;;;;;8.40;99.90;;;;;;5103709;28;19911;-76
2023/12/24 01:24:27;;;;;;;;;;;8.40;99.90;;;;;;5114472;28;19927;-76
2023/12/24 01:27:15;;;;;;;;;;;8.40;99.90;;;;;;5117588;28;19927;-76
2023/12/24 01:30:03;;;;;;;;;;;8.40;99.90;;;;;;5116908;28;19923;-76
2023/12/24 01:32:48;;;;;;;;;;;8.40;99.90;;;;;;5107768;28;19999;-76
2023/12/24 01:35:37;;;;;;;;;;;8.40;99.90;;;;;;5101936;28;19995;-76
2023/12/24 01:38:24;;;;;;;;;;;8.40;99.90;;;;;;5113955;28;19992;-76
2023/12/24 01:41:12;;;;;;;;;;;8.30;99.90;;;;;;5098036;28;19912;-76
2023/12/24 01:43:58;;;;;;;;;;;8.40;99.90;;;;;;5102739;28;19913;-76
2023/12/24 01:46:46;;;;;;;;;;;8.30;99.90;;;;;;5105723;28;19912;-76
2023/12/24 01:49:33;;;;;;;;;;;8.30;99.90;;;;;;5116825;28;19951;-76
2023/12/24 01:52:20;;;;;;;;;;;8.30;99.90;;;;;;5112566;28;19931;-76
2023/12/24 01:55:07;;;;;;;;;;;8.30;99.90;;;;;;5096428;28;20356;-76
2023/12/24 01:57:54;;;;;;;;;;;8.30;99.90;;;;;;5116403;27;19925;-76
2023/12/24 02:00:41;;;;;;;;;;;8.30;99.90;;;;;;5112442;28;19962;-75
2023/12/24 02:03:29;;;;;;;;;;;8.30;99.90;;;;;;5116885;28;19953;-76
2023/12/24 02:06:16;;;;;;;;;;;8.30;99.90;;;;;;5091011;28;20323;-76
2023/12/24 02:09:03;;;;;;;;;;;8.30;99.90;;;;;;5117089;27;20007;-76
2023/12/24 02:11:50;;;;;;;;;;;8.30;99.90;;;;;;5116975;27;19973;-75
2023/12/24 02:14:36;;;;;;;;;;;8.30;99.90;;;;;;5107341;28;19920;-75
2023/12/24 02:17:23;;;;;;;;;;;8.20;99.90;;;;;;5101747;28;20009;-77
2023/12/24 02:20:10;;;;;;;;;;;8.20;99.90;;;;;;5084286;28;19969;-76
2023/12/24 02:22:58;;;;;;;;;;;8.20;99.90;;;;;;5096216;28;20004;-77
2023/12/24 02:25:45;;;;;;;;;;;8.20;99.90;;;;;;5106203;28;19912;-77
2023/12/24 02:28:36;;;;;;;;;;;8.20;99.90;;;;;;5095508;28;19912;-76
2023/12/24 02:31:24;;;;;;;;;;;8.10;99.90;;;;;;5102109;28;19998;-76
2023/12/24 02:34:12;;;;;;;;;;;8.10;99.90;;;;;;5116098;28;19912;-75
2023/12/24 02:36:59;;;;;;;;;;;8.10;99.90;;;;;;5098868;28;19926;-76
2023/12/24 02:39:46;;;;;;;;;;;8.10;99.90;;;;;;5101605;28;19912;-76
2023/12/24 02:42:32;;;;;;;;;;;8.10;99.90;;;;;;5097302;28;19922;-76
2023/12/24 02:45:18;;;;;;;;;;;8.10;99.90;;;;;;5100308;28;19912;-76
2023/12/24 02:48:05;;;;;;;;;;;8.10;99.90;;;;;;5095299;28;19998;-76
2023/12/24 02:50:52;;;;;;;;;;;8.10;99.90;;;;;;5096454;28;19916;-76
2023/12/24 02:53:39;;;;;;;;;;;8.10;99.90;;;;;;5115761;28;19976;-76
2023/12/24 02:56:26;;;;;;;;;;;8.10;99.90;;;;;;5115448;28;20002;-77
2023/12/24 02:59:14;;;;;;;;;;;8.10;99.90;;;;;;5101644;28;19916;-77
2023/12/24 03:02:00;;;;;;;;;;;8.10;99.90;;;;;;5115638;28;19999;-76
2023/12/24 03:04:47;;;;;;;;;;;8.10;99.90;;;;;;5112048;28;19954;-76
2023/12/24 03:07:35;;;;;;;;;;;8.10;99.90;;;;;;5097621;28;19923;-76
2023/12/24 03:10:22;;;;;;;;;;;8.10;99.90;;;;;;5112171;28;19920;-76
2023/12/24 03:13:09;;;;;;;;;;;8.10;99.90;;;;;;5099757;28;19918;-76
2023/12/24 03:15:58;;;;;;;;;;;8.10;99.90;;;;;;5095865;28;20267;-77
2023/12/24 03:18:45;;;;;;;;;;;8.10;99.90;;;;;;5100544;28;19923;-76
2023/12/24 03:21:32;;;;;;;;;;;8.10;99.90;;;;;;5114243;28;19912;-76
2023/12/24 03:24:19;;;;;;;;;;;8.10;99.90;;;;;;5087285;28;19912;-76
2023/12/24 03:27:07;;;;;;;;;;;8.10;99.90;;;;;;5096718;28;19917;-76
2023/12/24 03:29:53;;;;;;;;;;;8.10;99.90;;;;;;5112653;28;19939;-76
2023/12/24 03:32:40;;;;;;;;;;;8.10;99.90;;;;;;5099706;28;19911;-76
2023/12/24 03:35:27;;;;;;;;;;;8.10;99.90;;;;;;5118315;28;20225;-76
2023/12/24 03:38:17;;;;;;;;;;;8.10;99.90;;;;;;5119082;28;20217;-76
2023/12/24 03:41:04;;;;;;;;;;;8.20;99.90;;;;;;5119577;28;20224;-77
2023/12/24 03:43:51;;;;;;;;;;;8.20;99.90;;;;;;5109413;28;19919;-76
2023/12/24 03:46:38;;;;;;;;;;;8.20;99.90;;;;;;5092657;28;19998;-76
2023/12/24 03:49:25;;;;;;;;;;;8.20;99.90;;;;;;5107337;28;19999;-75
2023/12/24 03:52:10;;;;;;;;;;;8.20;99.90;;;;;;5101880;28;20309;-75
2023/12/24 03:54:58;;;;;;;;;;;8.30;99.90;;;;;;5119456;28;19926;-76
2023/12/24 03:57:43;;;;;;;;;;;8.30;99.90;;;;;;5101878;28;19916;-75
2023/12/24 04:00:30;;;;;;;;;;;8.30;99.90;;;;;;5098941;28;19919;-75
2023/12/24 04:03:17;;;;;;;;;;;8.30;99.90;;;;;;5090904;28;20335;-75
2023/12/24 04:06:13;;;;;;;;;;;8.30;99.90;;;;;;5104503;28;20340;-75
2023/12/24 04:09:01;;;;;;;;;;;8.20;99.90;;;;;;5094177;28;19923;-75
2023/12/24 04:11:50;;;;;;;;;;;8.20;99.90;;;;;;5085398;28;20294;-75
2023/12/24 04:14:38;;;;;;;;;;;8.20;99.90;;;;;;5102743;28;19920;-76
2023/12/24 04:17:25;;;;;;;;;;;8.20;99.90;;;;;;5101259;28;19919;-76
2023/12/24 04:20:12;;;;;;;;;;;8.20;99.90;;;;;;5107712;28;20423;-76
2023/12/24 04:23:00;;;;;;;;;;;8.20;99.90;;;;;;5105390;28;19916;-75
2023/12/24 04:25:47;;;;;;;;;;;8.30;99.90;;;;;;5084354;28;19958;-75
2023/12/24 04:28:34;;;;;;;;;;;8.20;99.90;;;;;;5084480;28;19999;-76
2023/12/24 04:31:22;;;;;;;;;;;8.20;99.90;;;;;;5098826;28;19912;-76
2023/12/24 04:34:09;;;;;;;;;;;8.20;99.90;;;;;;5116783;28;19923;-75
2023/12/24 04:36:56;;;;;;;;;;;8.20;99.90;;;;;;5059100;28;19995;-76
2023/12/24 04:39:42;;;;;;;;;;;8.20;99.90;;;;;;5074629;28;20309;-76
2023/12/24 04:42:29;;;;;;;;;;;8.20;99.90;;;;;;5064927;28;20217;-75
2023/12/24 04:45:16;;;;;;;;;;;8.20;99.90;;;;;;5077307;28;19912;-76
2023/12/24 04:48:04;;;;;;;;;;;8.20;99.90;;;;;;5076721;28;20290;-75
2023/12/24 04:50:50;;;;;;;;;;;8.20;99.90;;;;;;5073675;28;20245;-76
2023/12/24 04:53:37;;;;;;;;;;;8.20;99.90;;;;;;5058138;28;19918;-76
2023/12/24 04:56:25;;;;;;;;;;;8.20;99.90;;;;;;5058492;28;19924;-76
2023/12/24 04:59:12;;;;;;;;;;;8.20;99.90;;;;;;5063359;28;19916;-76
2023/12/24 05:01:59;;;;;;;;;;;8.20;99.90;;;;;;5072975;28;20240;-76
2023/12/24 05:04:46;;;;;;;;;;;8.20;99.90;;;;;;5064588;28;19912;-76
2023/12/24 05:07:33;;;;;;;;;;;8.20;99.90;;;;;;5063644;28;19912;-76
2023/12/24 05:10:20;;;;;;;;;;;8.30;99.90;;;;;;5050260;28;19913;-75
2023/12/24 05:13:06;;;;;;;;;;;8.30;99.90;;;;;;5044582;28;19916;-75
2023/12/24 05:15:53;;;;;;;;;;;8.30;99.90;;;;;;5071403;28;19972;-77
2023/12/24 05:18:39;;;;;;;;;;;8.30;99.90;;;;;;5075209;28;20364;-76
2023/12/24 05:21:29;;;;;;;;;;;8.30;99.90;;;;;;5076192;28;19923;-76
2023/12/24 05:24:16;;;;;;;;;;;8.30;99.90;;;;;;5078456;28;19913;-76
2023/12/24 05:27:03;;;;;;;;;;;8.30;99.90;;;;;;5066000;28;19916;-76
2023/12/24 05:29:50;;;;;;;;;;;8.30;99.90;;;;;;5050710;28;20304;-76
2023/12/24 05:32:38;;;;;;;;;;;8.30;99.90;;;;;;5062341;28;19924;-76
2023/12/24 05:35:24;;;;;;;;;;;8.30;99.90;;;;;;5081259;28;19916;-76
2023/12/24 05:38:11;;;;;;;;;;;8.30;99.90;;;;;;5100633;28;20351;-76
2023/12/24 05:40:59;;;;;;;;;;;8.30;99.90;;;;;;5117000;28;19951;-76
2023/12/24 05:43:46;;;;;;;;;;;8.30;99.90;;;;;;5116750;28;19912;-76
2023/12/24 05:46:33;;;;;;;;;;;8.30;99.90;;;;;;5099982;28;20305;-76
2023/12/24 05:49:19;;;;;;;;;;;8.30;99.90;;;;;;5111690;28;19922;-75
2023/12/24 05:52:07;;;;;;;;;;;8.40;99.90;;;;;;5099041;28;19912;-75
2023/12/24 05:54:54;;;;;;;;;;;8.40;99.90;;;;;;5102145;28;19912;-75
2023/12/24 05:57:41;;;;;;;;;;;8.40;99.90;;;;;;5116815;28;19915;-76
2023/12/24 06:00:28;;;;;;;;;;;8.40;99.90;;;;;;5102669;28;19911;-76
2023/12/24 06:03:15;;;;;;;;;;;8.40;99.90;;;;;;5116314;28;20266;-76
2023/12/24 06:06:03;;;;;;;;;;;8.40;99.90;;;;;;5105308;28;20011;-76
2023/12/24 06:08:50;;;;;;;;;;;8.40;99.90;;;;;;5116541;28;19919;-76
2023/12/24 06:11:37;;;;;;;;;;;8.40;99.90;;;;;;5101196;28;20316;-75
2023/12/24 06:14:24;;;;;;;;;;;8.40;99.90;;;;;;5097018;28;19912;-76
2023/12/24 06:17:11;;;;;;;;;;;8.40;99.90;;;;;;5115833;28;19957;-75
2023/12/24 06:19:58;;;;;;;;;;;8.50;99.90;;;;;;5102619;28;20324;-76
2023/12/24 06:22:45;;;;;;;;;;;8.50;99.90;;;;;;5096396;28;20006;-77
2023/12/24 06:25:31;;;;;;;;;;;8.50;99.90;;;;;;5095739;28;19924;-76
2023/12/24 06:28:18;;;;;;;;;;;8.50;99.90;;;;;;5097263;28;20324;-78
2023/12/24 06:31:03;;;;;;;;;;;8.60;99.90;;;;;;5082671;28;19912;-76
2023/12/24 06:33:51;;;;;;;;;;;8.60;99.90;;;;;;5096942;28;20220;-77
2023/12/24 06:36:38;;;;;;;;;;;8.60;99.90;;;;;;5103186;28;20240;-77
2023/12/24 06:39:25;;;;;;;;;;;8.60;99.90;;;;;;5113481;28;19932;-77
2023/12/24 06:42:12;;;;;;;;;;;8.60;99.90;;;;;;5097272;28;19912;-76
2023/12/24 06:44:59;;;;;;;;;;;8.60;99.90;;;;;;5082104;28;19916;-76
2023/12/24 06:47:46;;;;;;;;;;;8.60;99.90;;;;;;5098304;28;19919;-77
2023/12/24 06:50:34;;;;;;;;;;;8.60;99.90;;;;;;5098721;28;19919;-77
2023/12/24 06:53:21;;;;;;;;;;;8.60;99.90;;;;;;5082801;28;19912;-76
2023/12/24 06:56:08;;;;;;;;;;;8.60;99.90;;;;;;5095558;28;19915;-77
2023/12/24 06:58:55;;;;;;;;;;;8.60;99.90;;;;;;5110280;28;19931;-76
2023/12/24 07:01:42;;;;;;;;;;;8.60;99.90;;;;;;5096244;28;19912;-76
2023/12/24 07:04:29;;;;;;;;;;;8.60;99.90;;;;;;5104370;28;19991;-76
2023/12/24 07:07:15;;;;;;;;;;;8.60;99.90;;;;;;5110455;28;19998;-76
2023/12/24 07:10:02;;;;;;;;;;;8.60;99.90;;;;;;5115843;28;19912;-76
2023/12/24 07:12:48;;;;;;;;;;;8.60;99.90;;;;;;5082153;28;20298;-76
2023/12/24 07:15:38;;;;;;;;;;;8.70;99.90;;;;;;5104802;28;19920;-76
2023/12/24 07:18:25;;;;;;;;;;;8.60;99.90;;;;;;5115320;28;20496;-77
2023/12/24 07:21:12;;;;;;;;;;;8.60;99.90;;;;;;5090603;28;19998;-76
2023/12/24 07:23:59;;;;;;;;;;;8.70;99.90;;;;;;5102018;28;20207;-76
2023/12/24 07:26:46;;;;;;;;;;;8.70;99.90;;;;;;5111170;28;19916;-76
2023/12/24 07:29:33;;;;;;;;;;;8.70;99.90;;;;;;5115690;28;19912;-76
2023/12/24 07:32:24;;;;;;;;;;;8.70;99.90;;;;;;5115423;28;20247;-76
2023/12/24 07:35:11;;;;;;;;;;;8.90;99.90;;;;;;5099067;28;19923;-76
2023/12/24 07:37:58;;;;;;;;;;;8.80;99.90;;;;;;5098938;28;19959;-75
2023/12/24 07:40:45;;;;;;;;;;;8.80;99.90;;;;;;5104480;28;19912;-76
2023/12/24 07:43:32;;;;;;;;;;;8.80;99.90;;;;;;5097731;28;19916;-76
2023/12/24 07:46:19;;;;;;;;;;;8.80;99.90;;;;;;5106685;28;19912;-76
2023/12/24 07:49:06;;;;;;;;;;;8.80;99.90;;;;;;5101580;28;19912;-77
2023/12/24 07:51:53;;;;;;;;;;;8.90;99.90;;;;;;5098934;28;19912;-77
2023/12/24 07:54:40;;;;;;;;;;;8.90;99.90;;;;;;5091760;28;19977;-76
2023/12/24 07:57:27;;;;;;;;;;;8.90;99.90;;;;;;5108372;28;19924;-76
2023/12/24 08:00:14;;;;;;;;;;;8.90;99.90;;;;;;5098285;28;20060;-76
2023/12/24 08:03:01;;;;;;;;;;;8.90;99.90;;;;;;5096093;28;19947;-75
2023/12/24 08:05:48;;;;;;;;;;;9.00;99.90;;;;;;5099162;28;19984;-77
2023/12/24 08:08:34;;;;;;;;;;;9.00;99.90;;;;;;5114849;28;19912;-77
2023/12/24 08:11:21;;;;;;;;;;;9.10;99.90;;;;;;5116641;28;19995;-75
2023/12/24 08:14:08;;;;;;;;;;;9.10;99.90;;;;;;5100706;28;19919;-77
2023/12/24 08:16:55;;;;;;;;;;;9.10;99.90;;;;;;5103366;28;19912;-76
2023/12/24 08:19:41;;;;;;;;;;;9.10;99.90;;;;;;5090316;28;19919;-76
2023/12/24 08:22:28;;;;;;;;;;;9.20;99.90;;;;;;5101093;28;19926;-76
2023/12/24 08:25:15;;;;;;;;;;;9.30;99.90;;;;;;5114713;28;20297;-76
2023/12/24 08:28:05;;;;;;;;;;;9.30;99.90;;;;;;5099211;28;20236;-75
2023/12/24 08:30:52;;;;;;;;;;;9.30;99.90;;;;;;5102329;28;20235;-76
2023/12/24 08:33:39;;;;;;;;;;;9.30;99.90;;;;;;5104541;28;19920;-75
2023/12/24 08:36:26;;;;;;;;;;;9.30;99.90;;;;;;5102985;28;19916;-75
2023/12/24 08:39:13;;;;;;;;;;;9.40;99.90;;;;;;5117956;28;19967;-75
2023/12/24 08:42:00;;;;;;;;;;;9.40;99.90;;;;;;5108793;28;19912;-75
2023/12/24 08:44:48;;;;;;;;;;;9.50;99.90;;;;;;5101891;28;19920;-75
2023/12/24 08:47:35;;;;;;;;;;;9.40;99.90;;;;;;5114291;28;19916;-76
2023/12/24 08:50:22;;;;;;;;;;;9.50;99.90;;;;;;5112861;28;20008;-78
2023/12/24 08:53:09;;;;;;;;;;;9.50;99.90;;;;;;5095968;28;19912;-77
2023/12/24 08:55:56;;;;;;;;;;;9.50;99.90;;;;;;5105897;28;19919;-76
2023/12/24 08:58:43;;;;;;;;;;;9.60;99.90;;;;;;5119214;28;19915;-76
2023/12/24 09:01:31;;;;;;;;;;;9.60;99.90;;;;;;5117874;28;19912;-77
2023/12/24 09:04:18;;;;;;;;;;;9.70;99.90;;;;;;5096461;28;19915;-78
2023/12/24 09:07:05;;;;;;;;;;;9.70;99.90;;;;;;5104994;28;19922;-76
2023/12/24 09:09:52;;;;;;;;;;;9.70;99.90;;;;;;5103023;28;19923;-75
2023/12/24 09:12:40;;;;;;;;;;;9.70;99.90;;;;;;5116246;27;19922;-76
2023/12/24 09:15:27;;;;;;;;;;;9.70;99.90;;;;;;5122265;27;20360;-76
2023/12/24 09:18:14;;;;;;;;;;;9.70;99.90;;;;;;5116435;28;19916;-76
2023/12/24 09:21:02;;;;;;;;;;;9.70;99.90;;;;;;5119802;27;19912;-77
2023/12/24 09:23:49;;;;;;;;;;;9.70;99.90;;;;;;5117898;27;19912;-76
2023/12/24 09:26:36;;;;;;;;;;;9.80;99.90;;;;;;5102794;28;19947;-77
2023/12/24 09:29:23;;;;;;;;;;;9.80;99.90;;;;;;5098225;28;19958;-77
2023/12/24 09:32:10;;;;;;;;;;;9.80;99.90;;;;;;5114887;28;19911;-77
2023/12/24 09:34:58;;;;;;;;;;;9.80;99.90;;;;;;5087036;28;19912;-77
2023/12/24 09:37:44;;;;;;;;;;;9.80;99.90;;;;;;5111176;27;19965;-77
2023/12/24 09:40:31;;;;;;;;;;;9.70;99.90;;;;;;5100074;28;20321;-77
2023/12/24 09:43:18;;;;;;;;;;;9.70;99.90;;;;;;5097166;28;19920;-78
2023/12/24 09:46:05;;;;;;;;;;;9.80;99.90;;;;;;5101281;28;19977;-77
2023/12/24 09:48:52;;;;;;;;;;;9.80;99.90;;;;;;5097885;28;19919;-77
2023/12/24 09:51:41;;;;;;;;;;;9.80;99.90;;;;;;5098553;28;19923;-77
2023/12/24 09:54:29;;;;;;;;;;;9.80;99.90;;;;;;5112568;27;19976;-77
2023/12/24 09:57:16;;;;;;;;;;;9.80;99.90;;;;;;5094079;28;20285;-78
2023/12/24 10:00:08;;;;;;;;;;;9.80;99.90;;;;;;5100720;28;20003;-76
2023/12/24 10:02:55;;;;;;;;;;;9.80;99.90;;;;;;5097881;28;20372;-77
2023/12/24 10:06:10;;;;;;;;;;;9.90;99.90;;;;;;5100723;28;19923;-76
2023/12/24 10:08:57;;;;;;;;;;;9.90;99.90;;;;;;5111130;28;19920;-77
2023/12/24 10:11:44;;;;;;;;;;;10.00;99.90;;;;;;5090177;28;20240;-78
2023/12/24 10:14:31;;;;;;;;;;;10.00;99.90;;;;;;5109341;27;19913;-76
2023/12/24 10:17:26;;;;;;;;;;;10.00;99.90;;;;;;5097583;28;19919;-77
2023/12/24 10:20:13;;;;;;;;;;;10.00;99.90;;;;;;5091436;28;19916;-78
2023/12/24 10:23:05;;;;;;;;;;;10.00;99.90;;;;;;5104074;27;19912;-78
2023/12/24 10:26:01;;;;;;;;;;;10.10;99.90;;;;;;5107427;27;19922;-78
2023/12/24 10:28:49;;;;;;;;;;;10.10;99.90;;;;;;5122726;27;19922;-78
2023/12/24 10:31:38;;;;;;;;;;;10.10;99.90;;;;;;5111614;28;19912;-77
2023/12/24 10:34:24;;;;;;;;;;;10.10;99.90;;;;;;5084468;28;19927;-78
2023/12/24 10:37:21;;;;;;;;;;;10.10;99.90;;;;;;5083404;28;19974;-77
2023/12/24 10:40:09;;;;;;;;;;;10.20;99.90;;;;;;5091045;28;19942;-79
2023/12/24 10:42:56;;;;;;;;;;;10.20;99.90;;;;;;5103192;28;19987;-79
2023/12/24 10:45:43;;;;;;;;;;;10.20;99.90;;;;;;5115665;28;20311;-79
2023/12/24 10:48:30;;;;;;;;;;;10.20;99.90;;;;;;5114829;27;19918;-79
2023/12/24 10:51:18;;;;;;;;;;;10.30;99.90;;;;;;5113677;28;20140;-77
2023/12/24 10:54:08;;;;;;;;;;;10.30;99.90;;;;;;5116941;27;19912;-79
2023/12/24 10:57:04;;;;;;;;;;;10.30;99.90;;;;;;5083321;28;19912;-78
2023/12/24 11:00:06;;;;;;;;;;;10.40;99.90;;;;;;5082039;28;19916;-76
2023/12/24 11:02:53;;;;;;;;;;;10.40;99.90;;;;;;5096265;28;19958;-77
2023/12/24 11:05:39;;;;;;;;;;;10.50;99.90;;;;;;5081652;28;19998;-75
2023/12/24 11:08:29;;;;;;;;;;;10.50;99.90;;;;;;5114546;28;19994;-77
2023/12/24 11:11:17;;;;;;;;;;;10.60;99.90;;;;;;5111769;28;20279;-77
2023/12/24 11:14:04;;;;;;;;;;;10.50;99.90;;;;;;5105123;28;19911;-78
2023/12/24 11:16:51;;;;;;;;;;;10.60;99.90;;;;;;5110592;27;19998;-77
2023/12/24 11:19:41;;;;;;;;;;;10.60;99.90;;;;;;5115476;28;20383;-77
2023/12/24 11:22:28;;;;;;;;;;;10.60;99.90;;;;;;5114884;28;19927;-77
2023/12/24 11:25:17;;;;;;;;;;;10.70;99.90;;;;;;5115034;28;20003;-76
2023/12/24 11:28:04;;;;;;;;;;;10.70;99.90;;;;;;5106326;28;20230;-77
2023/12/24 11:30:53;;;;;;;;;;;10.70;99.90;;;;;;5081720;28;19920;-77
2023/12/24 11:33:45;;;;;;;;;;;10.70;99.90;;;;;;5112613;28;19991;-77
2023/12/24 11:36:32;;;;;;;;;;;10.80;99.90;;;;;;5102787;28;19927;-77
2023/12/24 11:39:20;;;;;;;;;;;10.80;99.90;;;;;;5098936;28;20607;-78
2023/12/24 11:42:07;;;;;;;;;;;10.80;99.90;;;;;;5093617;28;19916;-78
2023/12/24 11:44:57;;;;;;;;;;;10.80;99.90;;;;;;5108268;28;19912;-80
2023/12/24 11:47:44;;;;;;;;;;;10.80;99.90;;;;;;5097976;28;20324;-78
2023/12/24 11:50:33;;;;;;;;;;;10.80;99.90;;;;;;5101020;28;19916;-79
2023/12/24 11:53:20;;;;;;;;;;;10.90;99.90;;;;;;5114475;28;19912;-78
2023/12/24 11:56:16;;;;;;;;;;;10.90;99.90;;;;;;5110622;28;20313;-77
2023/12/24 11:59:04;;;;;;;;;;;10.90;99.90;;;;;;5085966;28;19955;-77
2023/12/24 12:01:52;;;;;;;;;;;10.90;99.90;;;;;;5090229;28;19991;-78
2023/12/24 12:04:37;;;;;;;;;;;10.90;99.90;;;;;;5089241;28;20002;-78
2023/12/24 12:07:24;;;;;;;;;;;10.90;99.90;;;;;;5105044;28;19934;-76
2023/12/24 12:10:11;;;;;;;;;;;10.90;99.90;;;;;;5084635;28;19912;-76
2023/12/24 12:12:58;;;;;;;;;;;11.00;99.90;;;;;;5114221;28;19915;-76
2023/12/24 12:15:45;;;;;;;;;;;11.00;99.90;;;;;;5104960;28;19973;-78
2023/12/24 12:18:32;;;;;;;;;;;11.00;99.90;;;;;;5104735;28;19924;-76
2023/12/24 12:21:19;;;;;;;;;;;11.00;99.90;;;;;;5102300;27;19912;-78
2023/12/24 12:24:07;;;;;;;;;;;10.90;99.90;;;;;;5105466;28;19911;-80
2023/12/24 12:26:54;;;;;;;;;;;10.90;99.90;;;;;;5107009;27;19923;-78
2023/12/24 12:29:41;;;;;;;;;;;10.90;99.90;;;;;;5128917;27;19946;-78
2023/12/24 12:32:28;;;;;;;;;;;10.90;99.90;;;;;;5139429;27;19915;-79
2023/12/24 12:35:17;;;;;;;;;;;10.80;99.90;;;;;;5089419;28;20373;-76
2023/12/24 12:38:05;;;;;;;;;;;10.80;99.90;;;;;;5090067;28;19942;-79
2023/12/24 12:40:52;;;;;;;;;;;10.80;99.90;;;;;;5103477;28;20252;-79
2023/12/24 12:43:40;;;;;;;;;;;10.70;99.90;;;;;;5094583;28;19920;-78
2023/12/24 12:46:26;;;;;;;;;;;10.70;99.90;;;;;;5088304;28;19912;-80
2023/12/24 12:49:11;;;;;;;;;;;10.70;99.90;;;;;;5097127;28;19920;-80
2023/12/24 12:51:57;;;;;;;;;;;10.70;99.90;;;;;;5108950;28;20381;-79
2023/12/24 12:54:43;;;;;;;;;;;10.70;99.90;;;;;;5100303;28;19978;-80
2023/12/24 12:57:33;;;;;;;;;;;10.70;99.90;;;;;;5104153;28;19926;-77
2023/12/24 13:00:20;;;;;;;;;;;10.70;99.90;;;;;;5104889;28;19931;-77
2023/12/24 13:03:09;;;;;;;;;;;10.60;99.90;;;;;;5117241;28;19912;-78
2023/12/24 13:05:57;;;;;;;;;;;10.60;99.90;;;;;;5102609;28;20003;-77
2023/12/24 13:08:42;;;;;;;;;;;10.60;99.90;;;;;;5116308;28;19925;-77
2023/12/24 13:11:33;;;;;;;;;;;10.90;99.90;;;;;;5103456;28;19957;-77
2023/12/24 13:14:19;;;;;;;;;;;11.00;99.90;;;;;;5116081;27;19923;-80
2023/12/24 13:17:09;;;;;;;;;;;11.20;99.90;;;;;;5095146;28;19996;-78
2023/12/24 13:19:55;;;;;;;;;;;11.30;99.90;;;;;;5088796;28;19926;-78
2023/12/24 13:22:40;;;;;;;;;;;11.30;99.90;;;;;;5115676;28;19912;-76
2023/12/24 13:25:30;;;;;;;;;;;11.30;99.90;;;;;;5100287;28;20404;-78
2023/12/24 13:28:16;;;;;;;;;;;11.30;99.90;;;;;;5084856;28;19966;-77
2023/12/24 13:31:02;;;;;;;;;;;11.40;99.90;;;;;;5087853;28;19943;-78
2023/12/24 13:33:48;;;;;;;;;;;11.50;99.90;;;;;;5111327;28;20474;-79
2023/12/24 13:36:34;;;;;;;;;;;11.50;99.90;;;;;;5096150;28;19920;-80
2023/12/24 13:39:20;;;;;;;;;;;11.30;99.90;;;;;;5105375;28;20273;-79
2023/12/24 13:42:06;;;;;;;;;;;11.20;99.90;;;;;;5116158;28;19912;-78
2023/12/24 13:44:53;;;;;;;;;;;11.20;99.90;;;;;;5096467;28;19912;-78
2023/12/24 13:47:40;;;;;;;;;;;11.20;99.90;;;;;;5115209;28;19912;-78
2023/12/24 13:50:30;;;;;;;;;;;11.20;99.90;;;;;;5101293;28;19950;-77
2023/12/24 13:53:16;;;;;;;;;;;11.20;99.90;;;;;;5102737;28;19912;-78
2023/12/24 13:56:02;;;;;;;;;;;11.20;99.90;;;;;;5095924;28;19912;-78
2023/12/24 13:58:47;;;;;;;;;;;11.10;99.90;;;;;;5096483;28;19920;-81
2023/12/24 14:01:34;;;;;;;;;;;11.10;99.90;;;;;;5105912;28;19981;-79
2023/12/24 14:04:20;;;;;;;;;;;11.20;99.90;;;;;;5096911;28;19922;-77
2023/12/24 14:07:06;;;;;;;;;;;11.20;99.90;;;;;;5100511;28;19915;-78
2023/12/24 14:09:52;;;;;;;;;;;11.20;99.90;;;;;;5113155;28;20333;-78
2023/12/24 14:12:41;;;;;;;;;;;11.20;99.90;;;;;;5102697;28;19998;-78
2023/12/24 14:15:27;;;;;;;;;;;11.10;99.90;;;;;;5095156;28;19916;-77
2023/12/24 14:18:13;;;;;;;;;;;11.20;99.90;;;;;;5100775;28;19949;-79
2023/12/24 14:20:59;;;;;;;;;;;11.20;99.90;;;;;;5091009;28;20218;-78
2023/12/24 14:23:45;;;;;;;;;;;11.20;99.90;;;;;;5099003;28;19943;-77
2023/12/24 14:26:30;;;;;;;;;;;11.20;99.90;;;;;;5116895;28;19912;-78
2023/12/24 14:29:16;;;;;;;;;;;11.20;99.90;;;;;;5095729;28;20360;-78
2023/12/24 14:32:02;;;;;;;;;;;11.30;99.90;;;;;;5103913;28;19912;-77
2023/12/24 14:34:49;;;;;;;;;;;11.30;99.90;;;;;;5115797;28;20304;-77
2023/12/24 14:37:35;;;;;;;;;;;11.30;99.90;;;;;;5095893;28;19931;-77
2023/12/24 14:40:21;;;;;;;;;;;11.30;99.90;;;;;;5099808;28;19919;-78
2023/12/24 14:43:07;;;;;;;;;;;11.30;99.90;;;;;;5108945;28;19951;-78
2023/12/24 14:45:53;;;;;;;;;;;11.30;99.90;;;;;;5099131;28;19911;-77
2023/12/24 14:48:39;;;;;;;;;;;11.30;99.90;;;;;;5110069;28;19923;-76
2023/12/24 14:51:25;;;;;;;;;;;11.30;99.90;;;;;;5114809;28;19912;-77
2023/12/24 14:54:11;;;;;;;;;;;11.30;99.90;;;;;;5110052;28;19912;-76
2023/12/24 14:56:57;;;;;;;;;;;11.30;99.90;;;;;;5097189;28;19976;-78
2023/12/24 14:59:44;;;;;;;;;;;11.30;99.90;;;;;;5092242;28;19916;-77
2023/12/24 15:02:30;;;;;;;;;;;11.20;99.90;;;;;;5110787;28;19922;-76
2023/12/24 15:05:16;;;;;;;;;;;11.20;99.90;;;;;;5111195;28;19916;-77
2023/12/24 15:08:02;;;;;;;;;;;11.10;99.90;;;;;;5100958;28;19947;-78
2023/12/24 15:10:48;;;;;;;;;;;11.10;99.90;;;;;;5084919;28;20300;-77
2023/12/24 15:13:34;;;;;;;;;;;11.10;99.90;;;;;;5101529;28;19995;-78
2023/12/24 15:16:20;;;;;;;;;;;11.10;99.90;;;;;;5094671;28;20287;-77
2023/12/24 15:19:06;;;;;;;;;;;11.10;99.90;;;;;;5098107;28;19927;-76
2023/12/24 15:21:52;;;;;;;;;;;11.10;99.90;;;;;;5086353;28;20426;-76
2023/12/24 15:24:38;;;;;;;;;;;11.10;99.90;;;;;;5099569;28;19919;-76
2023/12/24 15:27:24;;;;;;;;;;;11.10;99.90;;;;;;5092674;28;20007;-78
2023/12/24 15:30:10;;;;;;;;;;;11.10;99.90;;;;;;5096712;28;19916;-77
2023/12/24 15:32:58;;;;;;;;;;;11.10;99.90;;;;;;5100305;28;19998;-78
2023/12/24 15:35:44;;;;;;;;;;;11.10;99.90;;;;;;5110204;28;19915;-78
2023/12/24 15:38:33;;;;;;;;;;;11.20;99.90;;;;;;5107459;28;19920;-77
2023/12/24 15:41:20;;;;;;;;;;;11.20;99.90;;;;;;5103147;28;19981;-78
2023/12/24 15:44:06;;;;;;;;;;;11.20;99.90;;;;;;5112717;28;19915;-77
2023/12/24 15:46:53;;;;;;;;;;;11.20;99.90;;;;;;5116622;27;19922;-77
2023/12/24 15:49:38;;;;;;;;;;;11.30;99.90;;;;;;5101492;28;19916;-78
2023/12/24 15:52:24;;;;;;;;;;;11.30;99.90;;;;;;5092801;28;19976;-78
2023/12/24 15:55:10;;;;;;;;;;;11.30;99.90;;;;;;5098518;28;19947;-78
2023/12/24 15:57:56;;;;;;;;;;;11.30;99.90;;;;;;5098023;28;19915;-78
2023/12/24 16:00:42;;;;;;;;;;;11.30;99.90;;;;;;5099403;28;19912;-78
2023/12/24 16:03:28;;;;;;;;;;;11.30;99.90;;;;;;5097899;28;19912;-77
2023/12/24 16:06:15;;;;;;;;;;;11.30;99.90;;;;;;5096664;28;20381;-77
2023/12/24 16:09:01;;;;;;;;;;;11.30;99.90;;;;;;5097759;28;19916;-77
2023/12/24 16:11:47;;;;;;;;;;;11.20;99.90;;;;;;5100392;28;19989;-77
2023/12/24 16:14:36;;;;;;;;;;;11.20;99.90;;;;;;5106173;28;20379;-77
2023/12/24 16:17:22;;;;;;;;;;;11.20;99.90;;;;;;5092305;27;19962;-77
2023/12/24 16:20:08;;;;;;;;;;;11.20;99.90;;;;;;5089680;28;19930;-77
2023/12/24 16:22:57;;;;;;;;;;;11.10;99.90;;;;;;5107810;28;19912;-77